Time;durP1;ratioP1;P1;durP2;ratioP2;P2;SDS_P1;SDS_P2;PMS_P1;PMS_P2;Temp;Humidity;BMP_temperature;BMP_pressure;BME280_temperature;BME280_humidity;BME280_pressure;Samples;Min_cycle;Max_cycle;Signal;HPM_P1;HPM_P2
2021/04/15 00:06:23;;;;;;;12.70;7.25;;;;;;;1.04;86.48;98968.98;469342;1195;103613;-40
2021/04/15 00:16:30;;;;;;;11.77;7.03;;;;;;;1.02;86.72;98957.92;468567;1196;104574;-40
2021/04/15 00:26:35;;;;;;;8.40;6.33;;;;;;;0.99;86.95;98947.83;468728;1196;103220;-42
2021/04/15 00:36:39;;;;;;;9.83;6.23;;;;;;;0.97;86.53;98944.58;468595;1196;103338;-41
2021/04/15 00:57:17;;;;;;;8.10;6.30;;;;;;;0.88;86.59;98933.31;468842;1196;103204;-41
2021/04/15 01:07:21;;;;;;;11.45;6.00;;;;;;;0.84;87.08;98927.62;468631;1196;103213;-40
2021/04/15 01:17:25;;;;;;;7.40;5.90;;;;;;;0.78;87.27;98922.24;468630;1196;103216;-40
2021/04/15 01:27:35;;;;;;;9.13;5.70;;;;;;;0.72;87.14;98915.90;470188;1162;103615;-41
2021/04/15 01:37:39;;;;;;;11.53;5.57;;;;;;;0.69;87.47;98913.59;469171;1196;103216;-40
2021/04/15 01:47:45;;;;;;;9.73;5.10;;;;;;;0.63;87.28;98906.42;468322;1196;103255;-41
2021/04/15 01:57:50;;;;;;;6.07;5.40;;;;;;;0.57;87.60;98901.86;469119;1196;103571;-41
2021/04/15 02:07:58;;;;;;;9.60;6.10;;;;;;;0.51;87.54;98895.52;469120;1196;103331;-40
2021/04/15 02:18:06;;;;;;;9.90;6.70;;;;;;;0.50;87.75;98891.28;468891;1195;103520;-41
2021/04/15 02:28:12;;;;;;;7.50;5.80;;;;;;;0.47;87.56;98875.16;468464;1196;103223;-40
2021/04/15 02:38:18;;;;;;;12.43;8.50;;;;;;;0.43;88.14;98874.66;468451;1196;103194;-40
2021/04/15 02:48:27;;;;;;;9.97;7.43;;;;;;;0.43;88.29;98877.27;468599;1196;103229;-41
2021/04/15 02:58:41;;;;;;;9.63;7.47;;;;;;;0.39;87.97;98870.76;469515;1196;103661;-40
2021/04/15 03:08:48;;;;;;;8.70;7.60;;;;;;;0.39;88.07;98867.34;468952;1195;103702;-40
2021/04/15 03:18:55;;;;;;;9.40;6.83;;;;;;;0.36;88.35;98865.88;469387;1196;103510;-41
2021/04/15 03:29:04;;;;;;;11.20;7.40;;;;;;;0.37;88.26;98872.70;469086;1196;103625;-42
2021/04/15 03:39:13;;;;;;;12.05;9.30;;;;;;;0.34;88.20;98865.22;468437;1196;103369;-41
2021/04/15 03:49:16;;;;;;;9.43;8.38;;;;;;;0.35;88.21;98860.83;468389;1196;103220;-40
2021/04/15 03:59:33;;;;;;;13.47;9.93;;;;;;;0.35;88.52;98866.84;468265;1195;103204;-42
2021/04/15 04:09:42;;;;;;;12.77;8.53;;;;;;;0.36;88.51;98865.88;468600;1196;103232;-41
2021/04/15 04:19:47;;;;;;;12.70;9.60;;;;;;;0.36;88.67;98867.66;468878;1196;104680;-40
2021/04/15 04:29:51;;;;;;;11.20;7.90;;;;;;;0.38;88.45;98865.71;468454;1196;103232;-40
2021/04/15 04:39:56;;;;;;;16.45;10.15;;;;;;;0.40;88.32;98871.56;468272;1196;103207;-40
2021/04/15 05:00:22;;;;;;;14.30;8.93;;;;;;;0.45;88.51;98875.31;468168;1196;103229;-40
2021/04/15 05:10:30;;;;;;;14.33;9.20;;;;;;;0.51;88.30;98872.09;468341;1196;103223;-40
2021/04/15 05:20:34;;;;;;;17.13;10.33;;;;;;;0.56;88.07;98872.43;468331;1196;103495;-40
2021/04/15 05:30:42;;;;;;;13.27;8.67;;;;;;;0.58;87.96;98867.88;468388;1196;103232;-42
2021/04/15 05:40:51;;;;;;;12.37;8.37;;;;;;;0.61;88.03;98859.75;468636;1196;103290;-40
2021/04/15 05:50:57;;;;;;;17.45;10.23;;;;;;;0.71;88.30;98859.61;468605;1196;104709;-40
2021/04/15 06:01:10;;;;;;;22.93;11.60;;;;;;;0.78;87.80;98854.57;468288;1196;103562;-42
2021/04/15 06:11:15;;;;;;;38.97;15.67;;;;;;;0.80;87.83;98853.43;468555;1196;104803;-40
2021/04/15 06:21:24;;;;;;;19.40;9.63;;;;;;;0.90;87.77;98848.86;468139;1196;103267;-40
2021/04/15 06:31:27;;;;;;;12.23;6.87;;;;;;;0.96;87.53;98841.41;468740;1196;103226;-40
2021/04/15 06:41:47;;;;;;;8.37;5.90;;;;;;;1.01;87.56;98837.33;468731;1196;103654;-43
2021/04/15 06:51:53;;;;;;;12.40;6.43;;;;;;;1.09;87.61;98832.10;468048;1196;103223;-39
2021/04/15 07:01:58;;;;;;;10.10;7.77;;;;;;;1.20;87.04;98829.18;468634;1196;103351;-40
2021/04/15 07:12:08;;;;;;;10.73;6.73;;;;;;;1.30;86.95;98833.39;468834;1196;104793;-40
2021/04/15 07:22:58;;;;;;;7.85;4.60;;;;;;;1.33;86.86;98825.23;468458;1196;103270;-39
2021/04/15 07:33:23;;;;;;;5.80;4.15;;;;;;;1.46;87.03;98822.94;468361;1196;103597;-40
2021/04/15 07:44:22;;;;;;;7.80;4.37;;;;;;;1.53;86.87;98819.49;468503;1196;103219;-38
2021/04/15 07:55:02;;;;;;;10.65;7.25;;;;;;;1.52;86.70;98830.09;469026;1196;103574;-40
2021/04/15 08:05:33;;;;;;;15.05;10.20;;;;;;;1.44;86.18;98824.91;468182;1196;103216;-40
2021/04/15 08:16:08;;;;;;;7.33;5.33;;;;;;;1.37;86.13;98819.52;468042;1196;103283;-40
2021/04/15 08:26:45;;;;;;;14.80;8.30;;;;;;;1.44;86.27;98825.72;468257;1196;103222;-39
2021/04/15 08:37:10;;;;;;;19.40;8.33;;;;;;;1.48;86.45;98813.98;468987;1196;103226;-40
2021/04/15 08:47:20;;;;;;;16.07;8.33;;;;;;;1.49;86.56;98822.60;468249;1196;104352;-40
2021/04/15 08:57:30;;;;;;;19.40;10.67;;;;;;;1.47;86.48;98816.75;468473;1196;104752;-40
2021/04/15 09:07:34;;;;;;;16.07;9.90;;;;;;;1.60;86.37;98808.39;468365;1195;103200;-40
2021/04/15 09:17:40;;;;;;;11.53;8.63;;;;;;;1.73;86.32;98814.70;469237;1196;103603;-41
2021/04/15 09:27:54;;;;;;;23.87;12.53;;;;;;;1.87;86.05;98804.54;469020;1196;103510;-40
2021/04/15 09:38:27;;;;;;;15.40;8.75;;;;;;;1.84;86.01;98806.50;468599;1196;103162;-39
2021/04/15 09:48:51;;;;;;;33.27;15.97;;;;;;;1.81;85.63;98800.82;468661;1196;103220;-42
2021/04/15 09:59:12;;;;;;;16.53;8.70;;;;;;;1.87;86.02;98797.53;468814;1196;103564;-39
2021/04/15 10:09:42;;;;;;;11.73;8.13;;;;;;;1.94;85.73;98793.28;468522;1195;103232;-40
2021/04/15 10:20:02;;;;;;;14.85;9.50;;;;;;;2.09;85.65;98788.13;468782;1196;103219;-39
2021/04/15 10:30:57;;;;;;;14.00;8.27;;;;;;;2.30;85.56;98788.34;468624;1196;103207;-40
2021/04/15 10:41:06;;;;;;;25.65;13.65;;;;;;;2.44;85.82;98787.60;468524;1196;103517;-41
2021/04/15 10:51:10;;;;;;;;;;;;;;;2.42;85.57;98783.55;468784;1201;103219;-39
2021/04/15 11:01:21;;;;;;;12.53;8.17;;;;;;;2.46;85.38;98775.19;468817;1196;103590;-39
2021/04/15 11:11:29;;;;;;;9.75;6.65;;;;;;;2.56;85.76;98781.96;468499;1196;103219;-40
2021/04/15 11:21:35;;;;;;;12.37;9.37;;;;;;;2.70;85.35;98786.44;468624;1196;103472;-40
2021/04/15 11:31:41;;;;;;;12.10;8.50;;;;;;;2.82;85.84;98789.42;468965;1196;103216;-41
2021/04/15 11:41:52;;;;;;;12.93;9.90;;;;;;;2.89;85.24;98782.53;468660;1196;104421;-40
2021/04/15 11:51:57;;;;;;;8.90;6.50;;;;;;;2.92;85.24;98787.39;468316;1196;104614;-40
2021/04/15 12:02:12;;;;;;;14.60;8.47;;;;;;;2.97;85.02;98775.42;468530;1196;103693;-43
2021/04/15 12:12:16;;;;;;;16.90;10.77;;;;;;;3.14;85.38;98776.09;469192;1196;103216;-40
2021/04/15 12:22:30;;;;;;;7.27;5.67;;;;;;;3.19;84.93;98772.94;468750;1196;103156;-40
2021/04/15 12:32:38;;;;;;;11.13;8.03;;;;;;;3.18;85.39;98772.13;468562;1195;103172;-39
2021/04/15 12:42:41;;;;;;;10.70;6.55;;;;;;;3.25;85.15;98767.80;468973;1196;103261;-40
2021/04/15 12:52:48;;;;;;;12.17;8.67;;;;;;;3.44;85.07;98763.84;468586;1195;103527;-40
2021/04/15 13:03:05;;;;;;;14.67;8.07;;;;;;;3.37;85.07;98766.38;468441;1196;103239;-41
2021/04/15 13:13:21;;;;;;;9.03;5.30;;;;;;;3.49;85.01;98765.91;468166;1196;103519;-40
2021/04/15 13:23:42;;;;;;;8.73;6.37;;;;;;;3.49;85.13;98756.27;468572;1196;103267;-41
2021/04/15 13:34:04;;;;;;;11.00;6.53;;;;;;;3.58;84.49;98760.42;469022;1196;103501;-41
2021/04/15 13:44:12;;;;;;;12.93;7.50;;;;;;;3.41;84.86;98753.75;468818;1196;103699;-40
2021/04/15 13:54:31;;;;;;;9.97;7.17;;;;;;;3.40;84.57;98759.97;468908;1196;103405;-40
2021/04/15 14:04:51;;;;;;;9.43;6.60;;;;;;;3.42;84.74;98755.38;468776;1196;103746;-41
2021/04/15 14:14:55;;;;;;;8.00;5.30;;;;;;;3.39;84.88;98755.73;468549;1196;103225;-41
2021/04/15 14:25:04;;;;;;;12.73;7.10;;;;;;;3.33;85.19;98761.70;469518;1196;103593;-41
2021/04/15 14:35:17;;;;;;;8.60;7.20;;;;;;;3.36;85.09;98759.53;469277;1196;104656;-40
2021/04/15 14:45:21;;;;;;;9.60;8.00;;;;;;;3.26;85.17;98763.38;468598;1196;103545;-40
2021/04/15 14:55:27;;;;;;;14.80;8.07;;;;;;;3.34;85.17;98752.86;469091;1196;103587;-40
2021/04/15 15:05:37;;;;;;;27.07;11.30;;;;;;;3.43;84.98;98756.99;468574;1195;103220;-40
2021/04/15 15:15:46;;;;;;;27.05;15.50;;;;;;;3.33;85.13;98754.66;468221;1196;103592;-41
2021/04/15 15:25:56;;;;;;;24.40;11.70;;;;;;;3.21;85.34;98748.24;468878;1195;103581;-42
2021/04/15 15:36:09;;;;;;;22.80;14.48;;;;;;;3.16;85.36;98745.37;468817;1196;103520;-40
2021/04/15 15:46:36;;;;;;;18.07;10.63;;;;;;;3.07;85.55;98747.23;468594;1196;103220;-40
2021/04/15 15:56:43;;;;;;;36.83;18.77;;;;;;;3.04;85.71;98739.75;468411;1195;103235;-40
2021/04/15 16:06:55;;;;;;;27.60;15.40;;;;;;;3.02;85.80;98744.34;468240;1196;103565;-39
2021/04/15 16:16:59;;;;;;;30.50;16.80;;;;;;;3.03;85.87;98748.58;468167;1196;103568;-40
2021/04/15 16:27:07;;;;;;;28.87;15.33;;;;;;;3.03;85.50;98747.77;469119;1195;103201;-40
2021/04/15 16:37:16;;;;;;;17.70;10.73;;;;;;;3.00;86.51;98748.94;468398;1196;103568;-40
2021/04/15 16:47:22;;;;;;;23.93;14.25;;;;;;;2.94;85.88;98752.27;468205;1196;103151;-40
2021/04/15 16:57:26;;;;;;;19.97;13.20;;;;;;;2.80;86.04;98749.63;468474;1196;103577;-41
2021/04/15 17:07:30;;;;;;;31.00;16.80;;;;;;;2.76;85.92;98752.59;468558;1196;104454;-40
2021/04/15 17:17:35;;;;;;;23.73;17.43;;;;;;;2.71;85.94;98760.14;468371;1196;103260;-40
2021/04/15 17:27:39;;;;;;;25.50;16.87;;;;;;;2.69;85.95;98766.53;468818;1195;103226;-40
2021/04/15 17:37:44;;;;;;;29.17;17.93;;;;;;;2.71;85.87;98780.22;468786;1196;103552;-40
2021/04/15 17:47:50;;;;;;;26.80;15.53;;;;;;;2.64;86.19;98777.51;469158;1196;103558;-40
2021/04/15 17:57:54;;;;;;;31.87;18.50;;;;;;;2.64;85.83;98787.14;468708;1196;103587;-40
2021/04/15 18:08:00;;;;;;;30.80;18.67;;;;;;;2.61;86.08;98797.94;468569;1196;103219;-40
2021/04/15 18:18:04;;;;;;;94.80;47.20;;;;;;;2.57;86.50;98794.84;468154;1196;103219;-40
2021/04/15 18:28:10;;;;;;;92.90;42.23;;;;;;;2.57;86.17;98796.64;468207;1196;103242;-41
2021/04/15 18:38:20;;;;;;;29.17;19.87;;;;;;;2.49;86.33;98802.73;469173;1196;103264;-41
2021/04/15 18:48:26;;;;;;;46.63;22.50;;;;;;;2.52;86.30;98806.79;468455;1196;103244;-42
2021/04/15 18:58:32;;;;;;;40.77;19.97;;;;;;;2.49;86.05;98809.75;468372;1196;103258;-40
2021/04/15 19:08:36;;;;;;;23.97;14.73;;;;;;;2.45;86.11;98817.94;468555;1196;104799;-41
2021/04/15 19:18:41;;;;;;;21.60;15.47;;;;;;;2.46;86.41;98803.09;469548;1196;103399;-40
2021/04/15 19:28:45;;;;;;;24.63;15.00;;;;;;;2.42;86.00;98800.02;468881;1196;103500;-40
2021/04/15 19:38:50;;;;;;;19.93;12.30;;;;;;;2.36;86.56;98805.91;469067;1196;103258;-41
2021/04/15 19:48:55;;;;;;;29.37;15.63;;;;;;;2.36;86.26;98799.88;468170;1196;103258;-41
2021/04/15 19:59:00;;;;;;;26.75;16.10;;;;;;;2.31;86.56;98807.41;468299;1196;103232;-41
2021/04/15 20:09:09;;;;;;;26.20;15.57;;;;;;;2.27;86.94;98806.14;469292;1196;103239;-40
2021/04/15 20:19:17;;;;;;;31.00;18.10;;;;;;;2.30;86.38;98798.77;468729;1196;103331;-41
2021/04/15 20:29:25;;;;;;;39.90;21.85;;;;;;;2.30;87.38;98798.77;468528;1195;103575;-42
2021/04/15 20:49:49;;;;;;;46.28;22.73;;;;;;;2.33;87.00;98787.17;468573;1196;103212;-41
2021/04/15 20:59:53;;;;;;;37.80;18.90;;;;;;;2.36;87.07;98789.44;468677;1196;103258;-41
2021/04/15 21:09:57;;;;;;;35.15;20.30;;;;;;;2.35;87.21;98779.98;468577;1195;103549;-41
2021/04/15 21:20:02;;;;;;;32.97;18.70;;;;;;;2.36;87.29;98771.17;468442;1196;103549;-42
2021/04/15 21:30:09;;;;;;;37.80;21.63;;;;;;;2.33;87.35;98764.50;469062;1196;103212;-41
2021/04/15 21:40:18;;;;;;;31.05;19.65;;;;;;;2.34;87.40;98757.48;468442;1196;103276;-41
2021/04/15 21:50:28;;;;;;;33.23;20.43;;;;;;;2.35;87.50;98766.94;468527;1196;103274;-41
2021/04/15 22:00:34;;;;;;;30.03;18.00;;;;;;;2.37;87.21;98770.21;468752;1196;103497;-42
2021/04/15 22:10:42;;;;;;;30.50;20.37;;;;;;;2.44;87.43;98781.57;468547;1196;103267;-41
2021/04/15 22:20:49;;;;;;;32.27;19.27;;;;;;;2.37;87.29;98783.26;468323;1196;103574;-41
2021/04/15 22:30:54;;;;;;;33.30;20.07;;;;;;;2.28;87.06;98774.66;468998;1196;104627;-41
2021/04/15 22:40:58;;;;;;;33.47;21.17;;;;;;;2.31;87.40;98774.30;468223;1196;103257;-43
2021/04/15 22:51:03;;;;;;;33.75;21.90;;;;;;;2.24;87.33;98770.77;468817;1196;103187;-41
2021/04/15 23:01:12;;;;;;;37.67;23.60;;;;;;;2.22;87.45;98766.71;469005;1196;103658;-41
2021/04/15 23:11:16;;;;;;;37.77;22.07;;;;;;;2.22;87.62;98761.50;468946;1196;103674;-41
2021/04/15 23:21:21;;;;;;;35.90;20.60;;;;;;;2.22;87.99;98740.63;469054;1195;103200;-41
2021/04/15 23:31:25;;;;;;;39.20;22.03;;;;;;;2.11;88.02;98739.21;468640;1196;103277;-41
2021/04/15 23:41:29;;;;;;;42.33;23.13;;;;;;;2.16;87.79;98731.70;468060;1196;103216;-41
2021/04/15 23:51:33;;;;;;;34.03;20.53;;;;;;;2.14;87.75;98724.05;468594;1196;103296;-41
